Pagrindinis puslapis
METAR-TAF:

METAR-TAF

Oro uostai :

Santa Ana del Yacuma, Bolivija

platuma: 13-46S, ilguma: 065-26W, Aukštis: 144 m

Dabartinis oras

Ataskaita buvo paskelbta 7 valandos ir 3 minutes, ne 16:00 UTC
Vėjas 5 kt iš Šiaurės
Temperatūra 30°C
Drėgmė 59%
Slėgis 1014 hPa
Matomumas 10 km arba daugiau
Mažai debesys ne aukštis 1700 ft

METAR: SLSA 301600Z 36005KT 9999 FEW017 30/21 Q1014

Laikas: 19:03 (23:03 UTC)


TAF: trūkstamas

Orai ataskaitas ir orų prognozės (METAR, TAF).

turimą stotys yra geltonos ir raudonos taškus žemėlapyje.

Perkelti pele per norėdami pamatyti stoties vardą.

Tada spustelėkite, norėdami matyti oro stebėjimo ir prognozės.

Norėdami pakeisti žemėlapį: spustelėkite ant žalios mygtukų su juodo kryžiaus žemyn,; žalią mygtuką su brūkšneliu, jei norite nutolinti; arba žalių rodyklių gretimoms žemėlapius.


METAR-TAF: